sensor_id;sensor_type;location;lat;lon;timestamp;P1;durP1;ratioP1;P2;durP2;ratioP2
40433;SDS011;26146;51.114;5.654;2023-02-15T00:02:00;27.33;;;12.43;;
40433;SDS011;26146;51.114;5.654;2023-02-15T00:06:02;32.60;;;13.40;;
40433;SDS011;26146;51.114;5.654;2023-02-15T00:10:03;30.27;;;12.47;;
40433;SDS011;26146;51.114;5.654;2023-02-15T00:14:06;34.30;;;13.83;;
40433;SDS011;26146;51.114;5.654;2023-02-15T00:18:09;31.02;;;13.23;;
40433;SDS011;26146;51.114;5.654;2023-02-15T00:22:10;33.43;;;14.67;;
40433;SDS011;26146;51.114;5.654;2023-02-15T00:26:11;34.87;;;15.13;;
40433;SDS011;26146;51.114;5.654;2023-02-15T00:30:13;37.30;;;15.40;;
40433;SDS011;26146;51.114;5.654;2023-02-15T00:38:16;36.23;;;15.90;;
40433;SDS011;26146;51.114;5.654;2023-02-15T00:42:17;33.37;;;15.33;;
40433;SDS011;26146;51.114;5.654;2023-02-15T00:46:18;34.27;;;14.30;;
40433;SDS011;26146;51.114;5.654;2023-02-15T00:50:19;33.90;;;14.20;;
40433;SDS011;26146;51.114;5.654;2023-02-15T00:54:20;35.23;;;14.47;;
40433;SDS011;26146;51.114;5.654;2023-02-15T00:58:21;33.20;;;14.00;;
40433;SDS011;26146;51.114;5.654;2023-02-15T01:02:22;30.60;;;13.40;;
40433;SDS011;26146;51.114;5.654;2023-02-15T01:06:23;33.63;;;13.37;;
40433;SDS011;26146;51.114;5.654;2023-02-15T01:10:24;31.83;;;13.33;;
40433;SDS011;26146;51.114;5.654;2023-02-15T01:14:26;28.20;;;12.73;;
40433;SDS011;26146;51.114;5.654;2023-02-15T01:18:27;30.27;;;12.53;;
40433;SDS011;26146;51.114;5.654;2023-02-15T01:22:28;35.97;;;14.10;;
40433;SDS011;26146;51.114;5.654;2023-02-15T01:26:31;36.17;;;15.30;;
40433;SDS011;26146;51.114;5.654;2023-02-15T01:30:32;37.30;;;15.93;;
40433;SDS011;26146;51.114;5.654;2023-02-15T01:34:35;41.60;;;17.63;;
40433;SDS011;26146;51.114;5.654;2023-02-15T01:38:36;42.70;;;18.03;;
40433;SDS011;26146;51.114;5.654;2023-02-15T01:42:37;43.47;;;18.20;;
40433;SDS011;26146;51.114;5.654;2023-02-15T01:46:40;42.30;;;18.10;;
40433;SDS011;26146;51.114;5.654;2023-02-15T01:50:49;46.27;;;18.37;;
40433;SDS011;26146;51.114;5.654;2023-02-15T01:55:00;42.63;;;17.93;;
40433;SDS011;26146;51.114;5.654;2023-02-15T01:59:12;45.00;;;18.27;;
40433;SDS011;26146;51.114;5.654;2023-02-15T02:03:17;40.37;;;18.23;;
40433;SDS011;26146;51.114;5.654;2023-02-15T02:07:23;44.95;;;18.83;;
40433;SDS011;26146;51.114;5.654;2023-02-15T02:11:27;45.75;;;19.45;;
40433;SDS011;26146;51.114;5.654;2023-02-15T02:19:44;42.77;;;19.50;;
40433;SDS011;26146;51.114;5.654;2023-02-15T02:42:26;41.87;;;19.47;;
40433;SDS011;26146;51.114;5.654;2023-02-15T02:50:53;44.50;;;19.50;;
40433;SDS011;26146;51.114;5.654;2023-02-15T02:54:54;41.73;;;18.87;;
40433;SDS011;26146;51.114;5.654;2023-02-15T02:59:01;44.03;;;19.33;;
40433;SDS011;26146;51.114;5.654;2023-02-15T03:03:20;44.83;;;19.40;;
40433;SDS011;26146;51.114;5.654;2023-02-15T03:07:22;43.03;;;18.57;;
40433;SDS011;26146;51.114;5.654;2023-02-15T03:11:26;43.57;;;18.87;;
40433;SDS011;26146;51.114;5.654;2023-02-15T03:15:30;42.57;;;18.83;;
40433;SDS011;26146;51.114;5.654;2023-02-15T03:19:53;43.13;;;19.00;;
40433;SDS011;26146;51.114;5.654;2023-02-15T03:24:06;44.87;;;19.73;;
40433;SDS011;26146;51.114;5.654;2023-02-15T03:28:13;44.53;;;18.67;;
40433;SDS011;26146;51.114;5.654;2023-02-15T03:32:19;43.70;;;18.57;;
40433;SDS011;26146;51.114;5.654;2023-02-15T03:36:22;46.57;;;18.77;;
40433;SDS011;26146;51.114;5.654;2023-02-15T03:40:30;46.77;;;18.97;;
40433;SDS011;26146;51.114;5.654;2023-02-15T03:44:59;45.55;;;19.35;;
40433;SDS011;26146;51.114;5.654;2023-02-15T03:53:21;40.93;;;18.70;;
40433;SDS011;26146;51.114;5.654;2023-02-15T03:57:26;43.20;;;18.50;;
40433;SDS011;26146;51.114;5.654;2023-02-15T04:06:07;43.30;;;18.77;;
40433;SDS011;26146;51.114;5.654;2023-02-15T04:10:08;44.03;;;18.40;;
40433;SDS011;26146;51.114;5.654;2023-02-15T04:14:27;43.77;;;18.07;;
40433;SDS011;26146;51.114;5.654;2023-02-15T04:18:46;40.87;;;17.73;;
40433;SDS011;26146;51.114;5.654;2023-02-15T04:23:06;41.90;;;16.80;;
40433;SDS011;26146;51.114;5.654;2023-02-15T04:27:26;41.03;;;17.53;;
40433;SDS011;26146;51.114;5.654;2023-02-15T04:31:27;40.77;;;17.90;;
40433;SDS011;26146;51.114;5.654;2023-02-15T04:35:28;44.03;;;17.93;;
40433;SDS011;26146;51.114;5.654;2023-02-15T04:39:31;43.73;;;18.57;;
40433;SDS011;26146;51.114;5.654;2023-02-15T04:43:32;41.03;;;19.23;;
40433;SDS011;26146;51.114;5.654;2023-02-15T04:47:33;42.27;;;18.33;;
40433;SDS011;26146;51.114;5.654;2023-02-15T04:51:35;40.97;;;17.37;;
40433;SDS011;26146;51.114;5.654;2023-02-15T04:55:36;41.90;;;17.43;;
40433;SDS011;26146;51.114;5.654;2023-02-15T04:59:37;40.50;;;16.40;;
40433;SDS011;26146;51.114;5.654;2023-02-15T05:03:37;43.47;;;17.03;;
40433;SDS011;26146;51.114;5.654;2023-02-15T05:07:38;38.30;;;16.87;;
40433;SDS011;26146;51.114;5.654;2023-02-15T05:11:39;39.40;;;16.83;;
40433;SDS011;26146;51.114;5.654;2023-02-15T05:15:40;39.40;;;16.57;;
40433;SDS011;26146;51.114;5.654;2023-02-15T05:19:41;39.10;;;16.27;;
40433;SDS011;26146;51.114;5.654;2023-02-15T05:23:42;37.70;;;16.67;;
40433;SDS011;26146;51.114;5.654;2023-02-15T05:27:43;38.37;;;16.60;;
40433;SDS011;26146;51.114;5.654;2023-02-15T05:32:03;35.30;;;15.97;;
40433;SDS011;26146;51.114;5.654;2023-02-15T05:36:04;37.83;;;15.93;;
40433;SDS011;26146;51.114;5.654;2023-02-15T05:40:07;36.97;;;15.80;;
40433;SDS011;26146;51.114;5.654;2023-02-15T05:44:08;37.37;;;16.60;;
40433;SDS011;26146;51.114;5.654;2023-02-15T05:48:09;38.77;;;16.60;;
40433;SDS011;26146;51.114;5.654;2023-02-15T05:52:10;37.47;;;16.40;;
40433;SDS011;26146;51.114;5.654;2023-02-15T05:56:12;42.10;;;17.50;;
40433;SDS011;26146;51.114;5.654;2023-02-15T06:00:13;44.13;;;18.00;;
40433;SDS011;26146;51.114;5.654;2023-02-15T06:04:15;39.17;;;17.73;;
40433;SDS011;26146;51.114;5.654;2023-02-15T06:08:16;44.10;;;18.20;;
40433;SDS011;26146;51.114;5.654;2023-02-15T06:12:17;45.43;;;17.47;;
40433;SDS011;26146;51.114;5.654;2023-02-15T06:16:18;41.97;;;16.73;;
40433;SDS011;26146;51.114;5.654;2023-02-15T06:20:19;38.83;;;17.13;;
40433;SDS011;26146;51.114;5.654;2023-02-15T06:24:22;39.23;;;16.83;;
40433;SDS011;26146;51.114;5.654;2023-02-15T06:28:22;40.63;;;17.13;;
40433;SDS011;26146;51.114;5.654;2023-02-15T06:32:25;42.90;;;17.37;;
40433;SDS011;26146;51.114;5.654;2023-02-15T06:36:27;43.27;;;17.00;;
40433;SDS011;26146;51.114;5.654;2023-02-15T06:40:28;41.40;;;16.87;;
40433;SDS011;26146;51.114;5.654;2023-02-15T06:44:29;41.80;;;17.73;;
40433;SDS011;26146;51.114;5.654;2023-02-15T06:48:30;38.13;;;16.53;;
40433;SDS011;26146;51.114;5.654;2023-02-15T06:52:31;43.27;;;17.40;;
40433;SDS011;26146;51.114;5.654;2023-02-15T06:56:32;41.33;;;17.43;;
40433;SDS011;26146;51.114;5.654;2023-02-15T07:00:33;41.97;;;17.80;;
40433;SDS011;26146;51.114;5.654;2023-02-15T07:04:34;41.23;;;17.27;;
40433;SDS011;26146;51.114;5.654;2023-02-15T07:08:36;42.63;;;18.13;;
40433;SDS011;26146;51.114;5.654;2023-02-15T07:12:37;42.00;;;17.80;;
40433;SDS011;26146;51.114;5.654;2023-02-15T07:16:47;42.87;;;18.23;;
40433;SDS011;26146;51.114;5.654;2023-02-15T07:20:48;44.40;;;18.40;;
40433;SDS011;26146;51.114;5.654;2023-02-15T07:24:49;43.17;;;18.67;;
40433;SDS011;26146;51.114;5.654;2023-02-15T07:28:54;42.78;;;17.75;;
40433;SDS011;26146;51.114;5.654;2023-02-15T07:32:56;43.90;;;17.97;;
40433;SDS011;26146;51.114;5.654;2023-02-15T07:37:16;50.47;;;19.00;;
40433;SDS011;26146;51.114;5.654;2023-02-15T07:41:19;51.37;;;19.17;;
40433;SDS011;26146;51.114;5.654;2023-02-15T07:45:20;47.83;;;19.30;;
40433;SDS011;26146;51.114;5.654;2023-02-15T07:49:21;42.27;;;18.83;;
40433;SDS011;26146;51.114;5.654;2023-02-15T07:53:22;51.73;;;20.40;;
40433;SDS011;26146;51.114;5.654;2023-02-15T07:57:23;52.93;;;23.77;;
40433;SDS011;26146;51.114;5.654;2023-02-15T08:01:29;65.50;;;29.83;;
40433;SDS011;26146;51.114;5.654;2023-02-15T08:05:32;71.03;;;31.37;;
40433;SDS011;26146;51.114;5.654;2023-02-15T08:09:35;68.37;;;28.53;;
40433;SDS011;26146;51.114;5.654;2023-02-15T08:13:36;79.10;;;32.37;;
40433;SDS011;26146;51.114;5.654;2023-02-15T08:17:53;74.13;;;32.00;;
40433;SDS011;26146;51.114;5.654;2023-02-15T08:21:55;88.40;;;40.47;;
40433;SDS011;26146;51.114;5.654;2023-02-15T08:25:59;92.50;;;41.07;;
40433;SDS011;26146;51.114;5.654;2023-02-15T08:30:00;55.83;;;24.93;;
40433;SDS011;26146;51.114;5.654;2023-02-15T08:34:01;51.27;;;22.20;;
40433;SDS011;26146;51.114;5.654;2023-02-15T08:38:02;60.10;;;25.63;;
40433;SDS011;26146;51.114;5.654;2023-02-15T08:42:03;68.00;;;30.33;;
40433;SDS011;26146;51.114;5.654;2023-02-15T08:46:05;64.83;;;30.00;;
40433;SDS011;26146;51.114;5.654;2023-02-15T08:50:07;59.10;;;26.23;;
40433;SDS011;26146;51.114;5.654;2023-02-15T08:54:09;56.77;;;26.00;;
40433;SDS011;26146;51.114;5.654;2023-02-15T08:58:13;66.25;;;29.70;;
40433;SDS011;26146;51.114;5.654;2023-02-15T09:02:13;69.57;;;31.57;;
40433;SDS011;26146;51.114;5.654;2023-02-15T09:06:17;64.53;;;30.00;;
40433;SDS011;26146;51.114;5.654;2023-02-15T09:10:20;72.63;;;32.13;;
40433;SDS011;26146;51.114;5.654;2023-02-15T09:14:22;60.53;;;30.33;;
40433;SDS011;26146;51.114;5.654;2023-02-15T09:18:24;56.73;;;27.13;;
40433;SDS011;26146;51.114;5.654;2023-02-15T09:22:25;56.07;;;27.57;;
40433;SDS011;26146;51.114;5.654;2023-02-15T09:26:27;62.57;;;32.27;;
40433;SDS011;26146;51.114;5.654;2023-02-15T09:30:33;72.87;;;35.43;;
40433;SDS011;26146;51.114;5.654;2023-02-15T09:34:34;81.83;;;40.93;;
40433;SDS011;26146;51.114;5.654;2023-02-15T09:38:35;71.33;;;31.67;;
40433;SDS011;26146;51.114;5.654;2023-02-15T09:51:24;76.23;;;34.27;;
40433;SDS011;26146;51.114;5.654;2023-02-15T10:00:16;72.77;;;35.00;;
40433;SDS011;26146;51.114;5.654;2023-02-15T10:09:14;66.83;;;30.37;;
40433;SDS011;26146;51.114;5.654;2023-02-15T10:30:08;51.57;;;27.80;;
40433;SDS011;26146;51.114;5.654;2023-02-15T10:39:26;44.17;;;22.13;;
40433;SDS011;26146;51.114;5.654;2023-02-15T11:09:48;39.73;;;18.00;;
40433;SDS011;26146;51.114;5.654;2023-02-15T11:13:56;34.67;;;14.43;;
40433;SDS011;26146;51.114;5.654;2023-02-15T11:22:12;25.17;;;10.67;;
40433;SDS011;26146;51.114;5.654;2023-02-15T11:26:19;26.73;;;11.40;;
40433;SDS011;26146;51.114;5.654;2023-02-15T11:30:43;24.83;;;10.80;;
40433;SDS011;26146;51.114;5.654;2023-02-15T11:38:58;25.87;;;11.30;;
40433;SDS011;26146;51.114;5.654;2023-02-15T11:43:05;25.73;;;11.33;;
40433;SDS011;26146;51.114;5.654;2023-02-15T11:47:30;26.55;;;11.20;;
40433;SDS011;26146;51.114;5.654;2023-02-15T11:51:31;29.10;;;11.70;;
40433;SDS011;26146;51.114;5.654;2023-02-15T11:55:34;26.80;;;11.93;;
40433;SDS011;26146;51.114;5.654;2023-02-15T11:59:35;29.20;;;11.82;;
40433;SDS011;26146;51.114;5.654;2023-02-15T12:07:54;27.45;;;11.35;;
40433;SDS011;26146;51.114;5.654;2023-02-15T12:16:28;26.15;;;11.75;;
40433;SDS011;26146;51.114;5.654;2023-02-15T12:20:53;27.55;;;11.20;;
40433;SDS011;26146;51.114;5.654;2023-02-15T12:25:04;28.40;;;11.73;;
40433;SDS011;26146;51.114;5.654;2023-02-15T12:29:31;25.55;;;11.18;;
40433;SDS011;26146;51.114;5.654;2023-02-15T12:33:41;24.25;;;10.88;;
40433;SDS011;26146;51.114;5.654;2023-02-15T12:37:52;26.02;;;11.35;;
40433;SDS011;26146;51.114;5.654;2023-02-15T12:46:13;27.80;;;11.70;;
40433;SDS011;26146;51.114;5.654;2023-02-15T12:50:25;24.83;;;11.27;;
40433;SDS011;26146;51.114;5.654;2023-02-15T12:58:39;26.45;;;11.52;;
40433;SDS011;26146;51.114;5.654;2023-02-15T13:02:42;24.38;;;11.18;;
40433;SDS011;26146;51.114;5.654;2023-02-15T13:06:49;26.15;;;11.95;;
40433;SDS011;26146;51.114;5.654;2023-02-15T13:10:56;28.73;;;11.60;;
40433;SDS011;26146;51.114;5.654;2023-02-15T13:15:22;27.90;;;11.67;;
40433;SDS011;26146;51.114;5.654;2023-02-15T13:19:35;30.10;;;11.02;;
40433;SDS011;26146;51.114;5.654;2023-02-15T13:23:42;26.30;;;10.70;;
40433;SDS011;26146;51.114;5.654;2023-02-15T13:27:48;27.92;;;11.18;;
40433;SDS011;26146;51.114;5.654;2023-02-15T13:31:52;27.85;;;11.40;;
40433;SDS011;26146;51.114;5.654;2023-02-15T13:35:59;27.98;;;11.27;;
40433;SDS011;26146;51.114;5.654;2023-02-15T13:40:15;28.42;;;11.90;;
40433;SDS011;26146;51.114;5.654;2023-02-15T14:10:38;27.33;;;11.40;;
40433;SDS011;26146;51.114;5.654;2023-02-15T14:14:56;27.40;;;11.93;;
40433;SDS011;26146;51.114;5.654;2023-02-15T14:19:16;28.52;;;12.13;;
40433;SDS011;26146;51.114;5.654;2023-02-15T14:28:09;25.90;;;11.40;;
40433;SDS011;26146;51.114;5.654;2023-02-15T14:36:40;25.13;;;10.95;;
40433;SDS011;26146;51.114;5.654;2023-02-15T14:45:06;28.13;;;12.85;;
40433;SDS011;26146;51.114;5.654;2023-02-15T14:49:32;24.88;;;12.02;;
40433;SDS011;26146;51.114;5.654;2023-02-15T14:53:37;29.50;;;11.83;;
40433;SDS011;26146;51.114;5.654;2023-02-15T14:57:39;27.52;;;12.02;;
40433;SDS011;26146;51.114;5.654;2023-02-15T15:01:56;25.80;;;11.63;;
40433;SDS011;26146;51.114;5.654;2023-02-15T15:05:59;30.60;;;13.77;;
40433;SDS011;26146;51.114;5.654;2023-02-15T15:18:43;30.08;;;13.10;;
40433;SDS011;26146;51.114;5.654;2023-02-15T15:22:45;28.77;;;13.85;;
40433;SDS011;26146;51.114;5.654;2023-02-15T15:26:46;25.95;;;12.40;;
40433;SDS011;26146;51.114;5.654;2023-02-15T15:30:51;26.95;;;12.05;;
40433;SDS011;26146;51.114;5.654;2023-02-15T15:35:55;26.73;;;12.70;;
40433;SDS011;26146;51.114;5.654;2023-02-15T15:52:01;28.83;;;13.68;;
40433;SDS011;26146;51.114;5.654;2023-02-15T15:56:13;28.85;;;13.75;;
40433;SDS011;26146;51.114;5.654;2023-02-15T16:04:30;31.63;;;14.50;;
40433;SDS011;26146;51.114;5.654;2023-02-15T16:08:34;34.78;;;17.25;;
40433;SDS011;26146;51.114;5.654;2023-02-15T16:12:37;84.67;;;35.53;;
40433;SDS011;26146;51.114;5.654;2023-02-15T16:16:39;37.42;;;16.35;;
40433;SDS011;26146;51.114;5.654;2023-02-15T16:20:40;29.52;;;14.02;;
40433;SDS011;26146;51.114;5.654;2023-02-15T16:29:29;29.52;;;14.27;;
40433;SDS011;26146;51.114;5.654;2023-02-15T16:33:36;30.48;;;15.70;;
40433;SDS011;26146;51.114;5.654;2023-02-15T16:37:38;31.02;;;14.40;;
40433;SDS011;26146;51.114;5.654;2023-02-15T16:41:39;32.80;;;14.95;;
40433;SDS011;26146;51.114;5.654;2023-02-15T16:45:40;32.58;;;16.50;;
40433;SDS011;26146;51.114;5.654;2023-02-15T16:49:45;34.65;;;15.75;;
40433;SDS011;26146;51.114;5.654;2023-02-15T16:53:48;30.40;;;14.95;;
40433;SDS011;26146;51.114;5.654;2023-02-15T16:57:50;31.25;;;14.63;;
40433;SDS011;26146;51.114;5.654;2023-02-15T17:01:55;31.23;;;14.70;;
40433;SDS011;26146;51.114;5.654;2023-02-15T17:05:58;35.63;;;16.30;;
40433;SDS011;26146;51.114;5.654;2023-02-15T17:10:01;33.83;;;16.13;;
40433;SDS011;26146;51.114;5.654;2023-02-15T17:18:19;33.17;;;16.77;;
40433;SDS011;26146;51.114;5.654;2023-02-15T17:22:23;35.73;;;19.20;;
40433;SDS011;26146;51.114;5.654;2023-02-15T17:26:28;37.63;;;19.10;;
40433;SDS011;26146;51.114;5.654;2023-02-15T17:30:33;36.20;;;18.30;;
40433;SDS011;26146;51.114;5.654;2023-02-15T17:34:57;37.77;;;16.57;;
40433;SDS011;26146;51.114;5.654;2023-02-15T17:39:05;34.15;;;16.58;;
40433;SDS011;26146;51.114;5.654;2023-02-15T17:43:18;33.70;;;15.80;;
40433;SDS011;26146;51.114;5.654;2023-02-15T17:47:23;33.73;;;16.13;;
40433;SDS011;26146;51.114;5.654;2023-02-15T17:51:26;32.40;;;15.77;;
40433;SDS011;26146;51.114;5.654;2023-02-15T17:55:28;30.17;;;15.40;;
40433;SDS011;26146;51.114;5.654;2023-02-15T17:59:35;34.73;;;16.60;;
40433;SDS011;26146;51.114;5.654;2023-02-15T18:03:54;35.47;;;15.73;;
40433;SDS011;26146;51.114;5.654;2023-02-15T18:08:15;35.70;;;16.33;;
40433;SDS011;26146;51.114;5.654;2023-02-15T18:12:37;35.97;;;16.70;;
40433;SDS011;26146;51.114;5.654;2023-02-15T18:16:39;34.33;;;15.67;;
40433;SDS011;26146;51.114;5.654;2023-02-15T18:20:42;34.87;;;16.70;;
40433;SDS011;26146;51.114;5.654;2023-02-15T18:24:44;34.53;;;16.80;;
40433;SDS011;26146;51.114;5.654;2023-02-15T18:28:46;42.43;;;19.57;;
40433;SDS011;26146;51.114;5.654;2023-02-15T18:32:48;37.90;;;18.97;;
40433;SDS011;26146;51.114;5.654;2023-02-15T18:36:51;39.87;;;19.30;;
40433;SDS011;26146;51.114;5.654;2023-02-15T18:40:53;41.00;;;19.50;;
40433;SDS011;26146;51.114;5.654;2023-02-15T18:44:55;44.17;;;19.67;;
40433;SDS011;26146;51.114;5.654;2023-02-15T18:48:58;38.40;;;17.60;;
40433;SDS011;26146;51.114;5.654;2023-02-15T18:53:02;38.50;;;18.53;;
40433;SDS011;26146;51.114;5.654;2023-02-15T18:57:08;36.93;;;17.73;;
40433;SDS011;26146;51.114;5.654;2023-02-15T19:01:13;37.90;;;17.97;;
40433;SDS011;26146;51.114;5.654;2023-02-15T19:05:16;37.87;;;17.80;;
40433;SDS011;26146;51.114;5.654;2023-02-15T19:09:18;37.77;;;18.23;;
40433;SDS011;26146;51.114;5.654;2023-02-15T19:13:21;40.23;;;18.47;;
40433;SDS011;26146;51.114;5.654;2023-02-15T19:17:22;37.27;;;16.93;;
40433;SDS011;26146;51.114;5.654;2023-02-15T19:21:24;37.87;;;18.67;;
40433;SDS011;26146;51.114;5.654;2023-02-15T19:25:29;37.85;;;18.83;;
40433;SDS011;26146;51.114;5.654;2023-02-15T19:29:33;40.07;;;18.67;;
40433;SDS011;26146;51.114;5.654;2023-02-15T19:33:34;41.57;;;20.63;;
40433;SDS011;26146;51.114;5.654;2023-02-15T19:37:38;40.67;;;19.30;;
40433;SDS011;26146;51.114;5.654;2023-02-15T19:41:41;40.20;;;18.60;;
40433;SDS011;26146;51.114;5.654;2023-02-15T19:45:44;39.90;;;19.63;;
40433;SDS011;26146;51.114;5.654;2023-02-15T19:49:46;43.77;;;20.03;;
40433;SDS011;26146;51.114;5.654;2023-02-15T19:53:47;41.70;;;19.60;;
40433;SDS011;26146;51.114;5.654;2023-02-15T19:57:49;39.97;;;19.27;;
40433;SDS011;26146;51.114;5.654;2023-02-15T20:01:53;40.83;;;19.33;;
40433;SDS011;26146;51.114;5.654;2023-02-15T20:05:55;42.67;;;20.40;;
40433;SDS011;26146;51.114;5.654;2023-02-15T20:09:59;40.03;;;19.13;;
40433;SDS011;26146;51.114;5.654;2023-02-15T20:14:00;42.63;;;19.87;;
40433;SDS011;26146;51.114;5.654;2023-02-15T20:18:02;134.23;;;56.00;;
40433;SDS011;26146;51.114;5.654;2023-02-15T20:22:03;57.93;;;27.37;;
40433;SDS011;26146;51.114;5.654;2023-02-15T20:26:14;44.23;;;21.73;;
40433;SDS011;26146;51.114;5.654;2023-02-15T20:30:19;41.43;;;20.53;;
40433;SDS011;26146;51.114;5.654;2023-02-15T20:34:22;43.83;;;20.88;;
40433;SDS011;26146;51.114;5.654;2023-02-15T20:38:24;41.03;;;19.90;;
40433;SDS011;26146;51.114;5.654;2023-02-15T20:42:35;38.47;;;19.10;;
40433;SDS011;26146;51.114;5.654;2023-02-15T20:46:38;40.53;;;18.90;;
40433;SDS011;26146;51.114;5.654;2023-02-15T20:50:39;42.27;;;19.43;;
40433;SDS011;26146;51.114;5.654;2023-02-15T20:54:54;37.30;;;18.63;;
40433;SDS011;26146;51.114;5.654;2023-02-15T20:59:05;37.40;;;18.47;;
40433;SDS011;26146;51.114;5.654;2023-02-15T21:03:19;36.87;;;18.03;;
40433;SDS011;26146;51.114;5.654;2023-02-15T21:07:22;36.50;;;18.40;;
40433;SDS011;26146;51.114;5.654;2023-02-15T21:11:23;39.93;;;18.67;;
40433;SDS011;26146;51.114;5.654;2023-02-15T21:19:32;37.13;;;17.60;;
40433;SDS011;26146;51.114;5.654;2023-02-15T21:23:37;43.10;;;21.20;;
40433;SDS011;26146;51.114;5.654;2023-02-15T21:27:40;36.03;;;18.20;;
40433;SDS011;26146;51.114;5.654;2023-02-15T21:31:41;42.57;;;18.33;;
40433;SDS011;26146;51.114;5.654;2023-02-15T21:35:42;38.07;;;17.80;;
40433;SDS011;26146;51.114;5.654;2023-02-15T21:39:46;36.33;;;17.97;;
40433;SDS011;26146;51.114;5.654;2023-02-15T21:43:47;35.80;;;18.50;;
40433;SDS011;26146;51.114;5.654;2023-02-15T21:48:07;42.00;;;19.17;;
40433;SDS011;26146;51.114;5.654;2023-02-15T21:52:10;41.40;;;19.77;;
40433;SDS011;26146;51.114;5.654;2023-02-15T21:56:13;40.17;;;19.37;;
40433;SDS011;26146;51.114;5.654;2023-02-15T22:00:17;41.33;;;19.65;;
40433;SDS011;26146;51.114;5.654;2023-02-15T22:08:25;37.33;;;18.02;;
40433;SDS011;26146;51.114;5.654;2023-02-15T22:12:28;37.83;;;18.33;;
40433;SDS011;26146;51.114;5.654;2023-02-15T22:16:29;35.70;;;18.37;;
40433;SDS011;26146;51.114;5.654;2023-02-15T22:20:30;38.87;;;18.50;;
40433;SDS011;26146;51.114;5.654;2023-02-15T22:24:31;37.70;;;19.10;;
40433;SDS011;26146;51.114;5.654;2023-02-15T22:28:33;37.40;;;18.93;;
40433;SDS011;26146;51.114;5.654;2023-02-15T22:32:39;38.17;;;18.53;;
40433;SDS011;26146;51.114;5.654;2023-02-15T22:36:42;38.27;;;18.90;;
40433;SDS011;26146;51.114;5.654;2023-02-15T22:40:43;38.40;;;18.63;;
40433;SDS011;26146;51.114;5.654;2023-02-15T22:44:45;39.77;;;19.17;;
40433;SDS011;26146;51.114;5.654;2023-02-15T22:48:47;39.33;;;17.80;;
40433;SDS011;26146;51.114;5.654;2023-02-15T22:52:49;39.50;;;18.87;;
40433;SDS011;26146;51.114;5.654;2023-02-15T22:56:56;39.10;;;17.77;;
40433;SDS011;26146;51.114;5.654;2023-02-15T23:00:57;36.80;;;18.67;;
40433;SDS011;26146;51.114;5.654;2023-02-15T23:04:59;40.17;;;19.20;;
40433;SDS011;26146;51.114;5.654;2023-02-15T23:09:00;39.53;;;18.53;;
40433;SDS011;26146;51.114;5.654;2023-02-15T23:13:01;39.23;;;19.30;;
40433;SDS011;26146;51.114;5.654;2023-02-15T23:17:28;38.63;;;18.97;;
40433;SDS011;26146;51.114;5.654;2023-02-15T23:21:30;41.13;;;18.40;;
40433;SDS011;26146;51.114;5.654;2023-02-15T23:25:32;41.87;;;19.43;;
40433;SDS011;26146;51.114;5.654;2023-02-15T23:29:35;38.20;;;18.83;;
40433;SDS011;26146;51.114;5.654;2023-02-15T23:33:36;38.23;;;18.83;;
40433;SDS011;26146;51.114;5.654;2023-02-15T23:37:38;39.17;;;18.73;;
40433;SDS011;26146;51.114;5.654;2023-02-15T23:41:39;39.80;;;18.90;;
40433;SDS011;26146;51.114;5.654;2023-02-15T23:45:40;40.50;;;19.10;;
40433;SDS011;26146;51.114;5.654;2023-02-15T23:49:41;42.37;;;19.17;;
40433;SDS011;26146;51.114;5.654;2023-02-15T23:53:42;42.00;;;19.33;;
40433;SDS011;26146;51.114;5.654;2023-02-15T23:57:46;37.33;;;18.77;;
